Kindred, ND (58051)

1:36 PM CDT on August 21, 2014 (GMT -0500)
West Fargo Official | Change Station
CLOSE
Current Station
Personal Weather Station
Location: West Fargo, ND
Elevation: 900 ft
Nearby Weather Stations

Elev 900 ft 46.82 °N, 96.92 °W | Updated 12 minutes ago

Mostly Cloudy
Mostly Cloudy
76.8 °F
Feels Like 78 °F
N
6.8
Wind Variable Wind from SSE

Today
High -- | Low -- °F
--% Chance of Precip.
Yesterday
High -- | Low -- °F
Precip. -- in
6:33 AM 8:27 PM
Waning Crescent, 13% visible
Pressure 29.76 in
Visibility 10.0 miles
Clouds Mostly Cloudy 2500 ft
Mostly Cloudy 2900 ft
Heat Index 78 °F
Dew Point 70 °F
Humidity 80%
Rainfall 0.05 in
Snow Depth Not available.
UV 5 out of 12
Pollen 6.30 out of 12
Air Quality Not available.
Flu Activity Not available.
SPECI KFAR 211826Z 15005KT 10SM BKN025 BKN029 25/20 A2976

More Conditions Fewer Conditions

Pressure 29.76 in
Visibility 10.0 miles
Clouds Mostly Cloudy 2500 ft
Mostly Cloudy 2900 ft
Heat Index 78 °F
Dew Point 70 °F
Humidity 80%
Rainfall 0.05 in
Snow Depth Not available.
UV 5 out of 12
Pollen 6.30 out of 12
Air Quality Not available.
Flu Activity Not available.
SPECI KFAR 211826Z 15005KT 10SM BKN025 BKN029 25/20 A2976

More Conditions Fewer Conditions

10-Day Weather Forecast

Almanac

Astronomy

Aug. 21, 2014 Rise Set
Actual Time 6:33 AM CDT 8:27 PM CDT
Civil Twilight 6:01 AM CDT 8:59 PM CDT
Nautical Twilight 5:21 AM CDT 9:39 PM CDT
Astronomical Twilight 4:37 AM CDT 10:22 PM CDT
Moon 2:59 AM CDT 6:02 PM CDT
Length of Visible Light 14h 58m
Length of Day
13h 53m
Tomorrow will be 3m 5s shorter.
Waning Crescent, 13% of the Moon is Illuminated
Today
Waning Crescent
Aug 25
New
Sep 2
First Quarter
Sep 8
Full
Sep 15
Last Quarter

Today's Extremes

State Highs State Lows

Community

WunderPhotos

Upload Photos

1,745,996 photos uploaded!

WunderBlogs® & News

Nearby

Snow Depth

Station Depth Elevation
No new snow has been reported.

Earthquake Activity

City Distance Mag. Time & Date
No recent earthquake activity has been reported nearby.
Minimum magnitude displayed is 2.5.

Coastal Water Temperatures

Place Temperature
No Stations Reporting

Nearby Weather Stations